Buoy 33880

sailwx.info

Track history (hours):
 
Tides and Currents Weather Stations Pressure Air Temp Water Temp Dewpoint Dewpoint Depression Visibility Wind Speed Wind Dir Waves Ship Positions

Drifting buoy 33880

Last reported at 2016-Sep-29 02:00 UTC. Time now 2016-Sep-29 05:05 UTC.
Position S 42°44' W 045°09'.

Date/timePositionNaut miles runAvg speedWind from/ knotsBaromVisibWave heightAir tempDewpointWater temp
2016-Sep-29 02:00S 42°44' W 045°09'1 0.6
2016-Sep-29 01:00S 42°45' W 045°08'3 1.3
2016-Sep-28 23:00S 42°46' W 045°05'2 0.5
2016-Sep-28 19:00S 42°47' W 045°03'2 1.2
2016-Sep-28 17:00S 42°48' W 045°01'7 0.4
2016-Sep-28 01:00S 42°51' W 044°53'0 0.2
2016-Sep-28 00:00S 42°51' W 044°53'0 0.2
2016-Sep-27 22:00S 42°51' W 044°53'1 0.7
2016-Sep-27 20:00S 42°51' W 044°51'0 0.2
2016-Sep-27 19:00S 42°51' W 044°51'1 1.1
2016-Sep-27 18:00S 42°51' W 044°50'13 0.6
2016-Sep-26 19:00S 42°52' W 044°32'1 0.5
2016-Sep-26 18:00S 42°52' W 044°31'0 0.0
2016-Sep-26 17:00S 42°52' W 044°31'4 0.9
2016-Sep-26 13:00S 42°52' W 044°27'1 0.7
2016-Sep-26 11:00S 42°53' W 044°25'0 0.0
2016-Sep-26 10:00S 42°53' W 044°25'4 0.7
2016-Sep-26 05:00S 42°52' W 044°20'6 0.6
2016-Sep-25 20:00S 42°53' W 044°12'3 1.5
2016-Sep-25 18:00S 42°50' W 044°09'0 0.0
2016-Sep-25 13:00S 42°50' W 044°09'1 0.3
2016-Sep-25 10:00S 42°51' W 044°08'2 0.5
2016-Sep-25 06:00S 42°51' W 044°05'1 0.2
2016-Sep-25 02:00S 42°50' W 044°04'1 0.4
2016-Sep-25 00:00S 42°50' W 044°03'2 0.5
2016-Sep-24 20:00S 42°50' W 044°00'1 0.7
2016-Sep-24 18:00S 42°50' W 043°59'2 0.3
2016-Sep-24 12:00S 42°50' W 043°56'0 0.0
2016-Sep-24 10:00S 42°50' W 043°56'4 0.3
2016-Sep-23 22:00S 42°48' W 043°51'0 0.0
2016-Sep-23 21:00S 42°48' W 043°51'1 0.3
2016-Sep-23 19:00S 42°48' W 043°51'1 0.4
2016-Sep-23 17:00S 42°48' W 043°52'1 0.2
2016-Sep-23 12:00S 42°47' W 043°51'0 0.1
2016-Sep-23 11:00S 42°47' W 043°51'0 0.2
2016-Sep-23 09:00S 42°47' W 043°50'0 0.1
2016-Sep-23 06:00S 42°46' W 043°50'1 0.2
2016-Sep-23 01:00S 42°46' W 043°49'0 0.2
2016-Sep-22 23:00S 42°46' W 043°48'0 0.0
2016-Sep-22 22:00S 42°46' W 043°48'0 0.1
2016-Sep-22 19:00S 42°46' W 043°48'0 0.1
2016-Sep-22 18:00S 42°46' W 043°47'1 1.1
2016-Sep-22 17:00S 42°46' W 043°46'1 0.1
2016-Sep-22 06:00S 42°46' W 043°44'1 0.1
2016-Sep-22 02:00S 42°46' W 043°44'0 0.1
2016-Sep-21 23:00S 42°46' W 043°44'1 0.2
2016-Sep-21 19:00S 42°46' W 043°45'1 0.7
2016-Sep-21 18:00S 42°46' W 043°45'0 0.4
2016-Sep-21 17:00S 42°46' W 043°44'0 0.0
2016-Sep-21 13:00S 42°46' W 043°44'0 0.2
2016-Sep-21 10:00S 42°45' W 043°44'3 0.2
2016-Sep-20 21:00S 42°42' W 043°43'0 0.2
2016-Sep-20 19:00S 42°42' W 043°43'2 0.8
2016-Sep-20 17:00S 42°41' W 043°41'2 0.2
2016-Sep-20 08:00S 42°40' W 043°39'0 0.1
2016-Sep-20 06:00S 42°40' W 043°40'0 0.1
2016-Sep-20 02:00S 42°40' W 043°39'1 0.3
2016-Sep-19 23:00S 42°40' W 043°38'0 0.1
2016-Sep-19 21:00S 42°39' W 043°38'0 0.2
2016-Sep-19 20:00S 42°40' W 043°38'1 0.3
2016-Sep-19 17:00S 42°39' W 043°38'1 0.2
2016-Sep-19 10:00S 42°38' W 043°37'1 0.6
2016-Sep-19 09:00S 42°38' W 043°36'1 1.1
2016-Sep-19 08:00S 42°38' W 043°35'  
Track history (hours):
 
Tides and Currents Weather Stations Pressure Air Temp Water Temp Dewpoint Dewpoint Depression Visibility Wind Speed Wind Dir Waves Ship Positions

Drifting buoy 33880

Last reported at 2016-Sep-29 02:00 UTC. Time now 2016-Sep-29 05:05 UTC.
Position S 42°44' W 045°09'.

Date/timePositionNaut miles runAvg speedWind from/ knotsBaromVisibWave heightAir tempDewpointWater temp
2016-Sep-29 02:00S 42°44' W 045°09'1 0.6
2016-Sep-29 01:00S 42°45' W 045°08'3 1.3
2016-Sep-28 23:00S 42°46' W 045°05'2 0.5
2016-Sep-28 19:00S 42°47' W 045°03'2 1.2
2016-Sep-28 17:00S 42°48' W 045°01'7 0.4
2016-Sep-28 01:00S 42°51' W 044°53'0 0.2
2016-Sep-28 00:00S 42°51' W 044°53'0 0.2
2016-Sep-27 22:00S 42°51' W 044°53'1 0.7
2016-Sep-27 20:00S 42°51' W 044°51'0 0.2
2016-Sep-27 19:00S 42°51' W 044°51'1 1.1
2016-Sep-27 18:00S 42°51' W 044°50'13 0.6
2016-Sep-26 19:00S 42°52' W 044°32'1 0.5
2016-Sep-26 18:00S 42°52' W 044°31'0 0.0
2016-Sep-26 17:00S 42°52' W 044°31'4 0.9
2016-Sep-26 13:00S 42°52' W 044°27'1 0.7
2016-Sep-26 11:00S 42°53' W 044°25'0 0.0
2016-Sep-26 10:00S 42°53' W 044°25'4 0.7
2016-Sep-26 05:00S 42°52' W 044°20'6 0.6
2016-Sep-25 20:00S 42°53' W 044°12'3 1.5
2016-Sep-25 18:00S 42°50' W 044°09'0 0.0
2016-Sep-25 13:00S 42°50' W 044°09'1 0.3
2016-Sep-25 10:00S 42°51' W 044°08'2 0.5
2016-Sep-25 06:00S 42°51' W 044°05'1 0.2
2016-Sep-25 02:00S 42°50' W 044°04'1 0.4
2016-Sep-25 00:00S 42°50' W 044°03'2 0.5
2016-Sep-24 20:00S 42°50' W 044°00'1 0.7
2016-Sep-24 18:00S 42°50' W 043°59'2 0.3
2016-Sep-24 12:00S 42°50' W 043°56'0 0.0
2016-Sep-24 10:00S 42°50' W 043°56'4 0.3
2016-Sep-23 22:00S 42°48' W 043°51'0 0.0
2016-Sep-23 21:00S 42°48' W 043°51'1 0.3
2016-Sep-23 19:00S 42°48' W 043°51'1 0.4
2016-Sep-23 17:00S 42°48' W 043°52'1 0.2
2016-Sep-23 12:00S 42°47' W 043°51'0 0.1
2016-Sep-23 11:00S 42°47' W 043°51'0 0.2
2016-Sep-23 09:00S 42°47' W 043°50'0 0.1
2016-Sep-23 06:00S 42°46' W 043°50'1 0.2
2016-Sep-23 01:00S 42°46' W 043°49'0 0.2
2016-Sep-22 23:00S 42°46' W 043°48'0 0.0
2016-Sep-22 22:00S 42°46' W 043°48'0 0.1
2016-Sep-22 19:00S 42°46' W 043°48'0 0.1
2016-Sep-22 18:00S 42°46' W 043°47'1 1.1
2016-Sep-22 17:00S 42°46' W 043°46'1 0.1
2016-Sep-22 06:00S 42°46' W 043°44'1 0.1
2016-Sep-22 02:00S 42°46' W 043°44'0 0.1
2016-Sep-21 23:00S 42°46' W 043°44'1 0.2
2016-Sep-21 19:00S 42°46' W 043°45'1 0.7
2016-Sep-21 18:00S 42°46' W 043°45'0 0.4
2016-Sep-21 17:00S 42°46' W 043°44'0 0.0
2016-Sep-21 13:00S 42°46' W 043°44'0 0.2
2016-Sep-21 10:00S 42°45' W 043°44'3 0.2
2016-Sep-20 21:00S 42°42' W 043°43'0 0.2
2016-Sep-20 19:00S 42°42' W 043°43'2 0.8
2016-Sep-20 17:00S 42°41' W 043°41'2 0.2
2016-Sep-20 08:00S 42°40' W 043°39'0 0.1
2016-Sep-20 06:00S 42°40' W 043°40'0 0.1
2016-Sep-20 02:00S 42°40' W 043°39'1 0.3
2016-Sep-19 23:00S 42°40' W 043°38'0 0.1
2016-Sep-19 21:00S 42°39' W 043°38'0 0.2
2016-Sep-19 20:00S 42°40' W 043°38'1 0.3
2016-Sep-19 17:00S 42°39' W 043°38'1 0.2
2016-Sep-19 10:00S 42°38' W 043°37'1 0.6
2016-Sep-19 09:00S 42°38' W 043°36'1 1.1
2016-Sep-19 08:00S 42°38' W 043°35'  

Dump ship's entire track history